Time;durP1;ratioP1;P1;durP2;ratioP2;P2;SDS_P1;SDS_P2;PMS_P1;PMS_P2;Temp;Humidity;BMP_temperature;BMP_pressure;BME280_temperature;BME280_humidity;BME280_pressure;Samples;Min_cycle;Max_cycle;Signal;HPM_P1;HPM_P2
2022/10/21 00:01:09;;;;;;;8.40;7.53;;;12.40;99.90;;;;;;4955921;29;20175;-87
2022/10/21 00:03:35;;;;;;;11.87;7.73;;;12.40;99.90;;;;;;4955690;29;20168;-87
2022/10/21 00:06:02;;;;;;;8.30;7.40;;;12.30;99.90;;;;;;4955906;29;20172;-87
2022/10/21 00:08:28;;;;;;;8.20;7.40;;;12.40;99.90;;;;;;4938517;29;20184;-87
2022/10/21 00:11:00;;;;;;;9.10;8.07;;;12.40;99.90;;;;;;4955479;29;20230;-87
2022/10/21 00:13:28;;;;;;;8.67;7.63;;;12.50;99.90;;;;;;4955728;29;20166;-86
2022/10/21 00:15:59;;;;;;;9.40;7.67;;;12.40;99.90;;;;;;4955811;29;20265;-87
2022/10/21 00:18:25;;;;;;;8.27;7.37;;;12.40;99.90;;;;;;4955627;29;20631;-87
2022/10/21 00:20:50;;;;;;;8.80;7.90;;;12.40;99.90;;;;;;4938577;29;20271;-88
2022/10/21 00:23:16;;;;;;;9.20;7.73;;;12.40;99.90;;;;;;4954607;29;20196;-87
2022/10/21 00:25:42;;;;;;;10.97;7.67;;;12.40;99.90;;;;;;4955564;28;20170;-87
2022/10/21 00:28:08;;;;;;;9.57;7.90;;;12.50;99.90;;;;;;4960486;29;20196;-88
2022/10/21 00:30:33;;;;;;;10.50;8.10;;;12.40;99.90;;;;;;4979868;29;20176;-87
2022/10/21 00:32:59;;;;;;;7.93;7.10;;;12.50;99.90;;;;;;4957987;29;20180;-88
2022/10/21 00:35:25;;;;;;;7.93;7.13;;;12.50;99.90;;;;;;4956829;29;20182;-88
2022/10/21 00:37:51;;;;;;;9.27;8.20;;;12.50;99.90;;;;;;4955317;29;20204;-86
2022/10/21 00:40:17;;;;;;;8.53;7.63;;;12.50;99.90;;;;;;4955648;29;20272;-87
2022/10/21 00:42:43;;;;;;;8.33;7.47;;;12.40;99.90;;;;;;4956742;29;20671;-86
2022/10/21 00:45:14;;;;;;;8.77;7.87;;;12.50;99.90;;;;;;4963717;29;20210;-88
2022/10/21 00:47:50;;;;;;;9.23;7.83;;;12.40;99.90;;;;;;4960331;29;20171;-86
2022/10/21 00:50:25;;;;;;;8.40;7.53;;;12.50;99.90;;;;;;4955446;29;20254;-86
2022/10/21 00:52:52;;;;;;;8.83;7.97;;;12.50;99.90;;;;;;4954106;29;20183;-85
2022/10/21 00:55:19;;;;;;;9.57;7.90;;;12.50;99.90;;;;;;4955288;29;20527;-85
2022/10/21 00:57:45;;;;;;;9.50;8.23;;;12.50;99.90;;;;;;4955406;29;20212;-86
2022/10/21 01:00:11;;;;;;;8.67;7.73;;;12.50;99.90;;;;;;4938215;29;20252;-86
2022/10/21 01:02:37;;;;;;;8.37;7.57;;;12.40;99.90;;;;;;4940237;29;20619;-86
2022/10/21 01:05:04;;;;;;;8.40;7.53;;;12.40;99.90;;;;;;4972224;28;20175;-87
2022/10/21 01:07:30;;;;;;;8.10;7.30;;;12.40;99.90;;;;;;4977975;28;20161;-87
2022/10/21 01:09:56;;;;;;;9.47;7.93;;;12.40;99.90;;;;;;4977191;28;20288;-84
2022/10/21 01:12:37;;;;;;;8.80;7.90;;;12.50;99.90;;;;;;4971115;29;20315;-87
2022/10/21 01:15:12;;;;;;;10.63;8.30;;;12.50;99.90;;;;;;4955244;29;20262;-87
2022/10/21 01:17:53;;;;;;;9.57;7.43;;;12.50;99.90;;;;;;4955105;29;20200;-87
2022/10/21 01:20:37;;;;;;;8.47;7.70;;;12.40;99.90;;;;;;4954830;29;20574;-85
2022/10/21 01:23:32;;;;;;;9.30;7.93;;;12.50;99.90;;;;;;4955131;29;20507;-86
2022/10/21 01:26:13;;;;;;;9.43;8.47;;;12.50;99.90;;;;;;4921324;29;20253;-86
2022/10/21 01:29:14;;;;;;;10.27;7.97;;;12.50;99.90;;;;;;4954646;29;20634;-86
2022/10/21 01:32:00;;;;;;;9.67;8.30;;;12.40;99.90;;;;;;4876792;29;20276;-85
2022/10/21 01:34:34;;;;;;;9.93;8.37;;;12.40;99.90;;;;;;4876410;29;20243;-87
2022/10/21 01:37:12;;;;;;;9.07;7.90;;;12.40;99.90;;;;;;4861290;29;20254;-86
2022/10/21 01:39:44;;;;;;;9.80;8.77;;;12.40;99.90;;;;;;4879180;29;20185;-87
2022/10/21 01:42:27;;;;;;;13.50;9.27;;;12.40;99.90;;;;;;4880774;29;20222;-87
2022/10/21 01:45:01;;;;;;;10.77;8.90;;;12.40;99.90;;;;;;4880691;29;20222;-86
2022/10/21 01:47:32;;;;;;;9.50;8.50;;;12.30;99.90;;;;;;4883793;29;20193;-86
2022/10/21 01:50:21;;;;;;;10.07;8.53;;;12.40;99.90;;;;;;4880827;29;20194;-86
2022/10/21 01:52:51;;;;;;;10.87;8.60;;;12.40;99.90;;;;;;4865435;29;20253;-86
2022/10/21 01:55:21;;;;;;;10.77;8.53;;;12.40;99.90;;;;;;4880690;29;20194;-87
2022/10/21 01:58:10;;;;;;;9.50;8.27;;;12.30;99.90;;;;;;4880475;29;20224;-87
2022/10/21 02:00:37;;;;;;;11.57;8.87;;;12.30;99.90;;;;;;4881302;29;20186;-87
2022/10/21 02:03:10;;;;;;;9.33;8.43;;;12.40;99.90;;;;;;4900380;29;20237;-87
2022/10/21 02:05:36;;;;;;;9.60;8.40;;;12.50;99.90;;;;;;4942132;29;20170;-87
2022/10/21 02:08:02;;;;;;;9.73;8.27;;;12.40;99.90;;;;;;4972137;29;20594;-87
2022/10/21 02:10:33;;;;;;;9.67;8.67;;;12.40;99.90;;;;;;4963673;29;20180;-86
2022/10/21 02:13:02;;;;;;;9.97;8.33;;;12.50;99.90;;;;;;4951330;29;20193;-87
2022/10/21 02:15:31;;;;;;;10.70;8.80;;;12.40;99.90;;;;;;4944322;29;20194;-85
2022/10/21 02:18:08;;;;;;;9.27;8.20;;;12.40;99.90;;;;;;4958372;29;20704;-86
2022/10/21 02:20:38;;;;;;;11.20;8.53;;;12.40;99.90;;;;;;4958058;29;20163;-87
2022/10/21 02:23:06;;;;;;;9.50;8.57;;;12.40;99.90;;;;;;4940752;29;20300;-86
2022/10/21 02:25:35;;;;;;;9.90;8.23;;;12.30;99.90;;;;;;4957851;29;20179;-87
2022/10/21 02:28:01;;;;;;;9.03;8.10;;;12.30;99.90;;;;;;4957848;29;20175;-87
2022/10/21 02:30:36;;;;;;;9.87;8.33;;;12.30;99.90;;;;;;4962409;29;20291;-87
2022/10/21 02:33:10;;;;;;;12.13;8.77;;;12.30;99.90;;;;;;4960434;29;20169;-87
2022/10/21 02:35:41;;;;;;;9.73;8.27;;;12.30;99.90;;;;;;4957901;29;20159;-87
2022/10/21 02:38:22;;;;;;;11.90;8.70;;;12.30;99.90;;;;;;4957450;29;20288;-87
2022/10/21 02:40:55;;;;;;;9.10;8.20;;;12.40;99.90;;;;;;4957489;29;20536;-88
2022/10/21 02:43:31;;;;;;;10.87;8.83;;;12.30;99.90;;;;;;4940254;29;20218;-87
2022/10/21 02:46:06;;;;;;;10.00;9.00;;;12.30;99.90;;;;;;4957438;29;20167;-87
2022/10/21 02:48:33;;;;;;;10.90;8.83;;;12.30;99.90;;;;;;4963971;29;20240;-87
2022/10/21 02:51:01;;;;;;;9.60;8.60;;;12.30;99.90;;;;;;4961713;28;20175;-87
2022/10/21 02:53:27;;;;;;;9.33;8.33;;;12.20;99.90;;;;;;4972517;28;20241;-87
2022/10/21 02:55:53;;;;;;;10.63;9.03;;;12.30;99.90;;;;;;4981987;29;20168;-87
2022/10/21 02:58:19;;;;;;;10.33;8.33;;;12.30;99.90;;;;;;4968184;29;20246;-87
2022/10/21 03:00:44;;;;;;;11.47;8.00;;;12.40;99.90;;;;;;4940532;29;20736;-86
2022/10/21 03:03:10;;;;;;;9.20;8.30;;;12.50;99.90;;;;;;4957146;29;20183;-86
2022/10/21 03:05:36;;;;;;;9.47;8.47;;;12.40;99.90;;;;;;4957048;29;20532;-87
2022/10/21 03:08:01;;;;;;;9.43;8.43;;;12.40;99.90;;;;;;4956974;29;20258;-87
2022/10/21 03:10:28;;;;;;;12.13;8.93;;;12.40;99.90;;;;;;4956794;29;20619;-85
2022/10/21 03:12:54;;;;;;;8.67;7.77;;;12.30;99.90;;;;;;4956730;29;20171;-85
2022/10/21 03:15:20;;;;;;;9.37;8.37;;;12.30;99.90;;;;;;4956636;29;20198;-86
2022/10/21 03:17:46;;;;;;;12.07;8.73;;;12.40;99.90;;;;;;4956726;29;20221;-85
2022/10/21 03:20:12;;;;;;;10.37;8.70;;;12.30;99.90;;;;;;4939644;29;20195;-87
2022/10/21 03:22:38;;;;;;;10.00;8.67;;;12.30;99.90;;;;;;4956930;29;20186;-87
2022/10/21 03:25:04;;;;;;;9.67;8.57;;;12.30;99.90;;;;;;4960772;29;20176;-87
2022/10/21 03:27:30;;;;;;;11.60;9.63;;;12.30;99.90;;;;;;4955999;29;20588;-87
2022/10/21 03:29:56;;;;;;;9.73;8.73;;;12.30;99.90;;;;;;4939667;29;20189;-87
2022/10/21 03:32:22;;;;;;;11.00;8.77;;;12.40;99.90;;;;;;4958750;29;20263;-87
2022/10/21 03:34:48;;;;;;;11.43;9.23;;;12.40;99.90;;;;;;4965988;29;20181;-87
2022/10/21 03:37:14;;;;;;;13.03;8.80;;;12.40;99.90;;;;;;4961175;29;20212;-87
2022/10/21 03:39:39;;;;;;;9.97;8.83;;;12.50;99.90;;;;;;4980406;28;20188;-86
2022/10/21 03:42:05;;;;;;;10.03;8.40;;;12.40;99.90;;;;;;4974238;28;20269;-87
2022/10/21 03:44:32;;;;;;;11.37;9.07;;;12.40;99.90;;;;;;4958369;29;20185;-86
2022/10/21 03:46:57;;;;;;;9.63;8.30;;;12.40;99.90;;;;;;4957251;29;20188;-87
2022/10/21 03:49:24;;;;;;;9.57;8.40;;;12.40;99.90;;;;;;4956831;29;20258;-88
2022/10/21 03:51:50;;;;;;;10.33;9.23;;;12.40;99.90;;;;;;4956526;29;20178;-88
2022/10/21 03:54:16;;;;;;;11.80;9.07;;;12.30;99.90;;;;;;4956201;29;20552;-87
2022/10/21 03:56:42;;;;;;;11.10;9.37;;;12.40;99.90;;;;;;4938750;29;20597;-87
2022/10/21 03:59:08;;;;;;;13.50;9.03;;;12.40;99.90;;;;;;4955937;29;20602;-87
2022/10/21 04:01:34;;;;;;;9.63;8.60;;;12.40;99.90;;;;;;4955195;28;20201;-87
2022/10/21 04:03:59;;;;;;;12.43;9.37;;;12.30;99.90;;;;;;4955888;29;20180;-87
2022/10/21 04:06:25;;;;;;;10.37;8.57;;;12.40;99.90;;;;;;4938777;29;20284;-87
2022/10/21 04:08:51;;;;;;;10.73;9.53;;;12.40;99.90;;;;;;4957541;29;20173;-87
2022/10/21 04:11:17;;;;;;;11.10;9.20;;;12.30;99.90;;;;;;4955674;29;20801;-86
2022/10/21 04:13:43;;;;;;;11.60;9.30;;;12.40;99.90;;;;;;4958495;29;20252;-87
2022/10/21 04:16:16;;;;;;;11.83;9.77;;;12.30;99.90;;;;;;4958061;29;20262;-87
2022/10/21 04:18:42;;;;;;;11.23;9.50;;;12.40;99.90;;;;;;4960485;29;20209;-87
2022/10/21 04:21:07;;;;;;;9.33;8.33;;;12.30;99.90;;;;;;4956056;29;20170;-86
2022/10/21 04:23:34;;;;;;;10.00;8.83;;;12.30;99.90;;;;;;4955802;29;20206;-86
2022/10/21 04:26:00;;;;;;;11.83;8.87;;;12.30;99.90;;;;;;4938327;29;20171;-86
2022/10/21 04:28:26;;;;;;;11.57;9.60;;;12.30;99.90;;;;;;4938248;29;20535;-86
2022/10/21 04:30:51;;;;;;;10.67;9.40;;;12.30;99.90;;;;;;4938700;29;20175;-86
2022/10/21 04:33:18;;;;;;;11.50;9.17;;;12.30;99.90;;;;;;4941080;29;20183;-87
2022/10/21 04:35:43;;;;;;;10.73;9.27;;;12.30;99.90;;;;;;4957786;29;20196;-85
2022/10/21 04:38:09;;;;;;;12.30;9.87;;;12.30;99.90;;;;;;4956290;29;20248;-86
2022/10/21 04:40:35;;;;;;;11.03;8.90;;;12.30;99.90;;;;;;4957251;29;20192;-87
2022/10/21 04:43:01;;;;;;;13.67;9.37;;;12.20;99.90;;;;;;4978866;29;20166;-86
2022/10/21 04:45:27;;;;;;;12.53;9.77;;;12.30;99.90;;;;;;4979867;29;20225;-86
2022/10/21 04:47:53;;;;;;;11.30;8.93;;;12.30;99.90;;;;;;4940585;29;20184;-86
2022/10/21 04:50:19;;;;;;;11.60;9.20;;;12.30;99.90;;;;;;4955664;29;20171;-86
2022/10/21 04:52:45;;;;;;;12.00;9.33;;;12.30;99.90;;;;;;4955113;29;20188;-86
2022/10/21 04:55:10;;;;;;;11.53;9.37;;;12.30;99.90;;;;;;4938268;29;20211;-88
2022/10/21 04:57:36;;;;;;;10.20;8.87;;;12.30;99.90;;;;;;4957044;29;20250;-86
2022/10/21 05:00:04;;;;;;;11.27;9.13;;;12.30;99.90;;;;;;4956583;29;20237;-86
2022/10/21 05:02:30;;;;;;;11.40;9.27;;;12.30;99.90;;;;;;4955283;29;20241;-85
2022/10/21 05:04:55;;;;;;;11.30;9.43;;;12.30;99.90;;;;;;4955362;29;20175;-85
2022/10/21 05:07:21;;;;;;;12.43;9.13;;;12.20;99.90;;;;;;4955055;29;20207;-87
2022/10/21 05:09:47;;;;;;;11.03;8.70;;;12.20;99.90;;;;;;4938114;29;20220;-87
2022/10/21 05:12:13;;;;;;;10.53;9.00;;;12.20;99.90;;;;;;4958052;29;20283;-87
2022/10/21 05:14:39;;;;;;;12.27;9.17;;;12.20;99.90;;;;;;4977869;28;20187;-86
2022/10/21 05:17:04;;;;;;;12.17;8.70;;;12.10;99.90;;;;;;4955564;29;20694;-87
2022/10/21 05:19:31;;;;;;;12.70;9.37;;;12.20;99.90;;;;;;4939002;29;20186;-87
2022/10/21 05:21:57;;;;;;;12.47;9.93;;;12.10;99.90;;;;;;4955283;29;20223;-87
2022/10/21 05:24:23;;;;;;;10.93;9.33;;;12.10;99.90;;;;;;4954865;29;20578;-87
2022/10/21 05:26:48;;;;;;;9.93;8.93;;;12.10;99.90;;;;;;4954800;29;20216;-86
2022/10/21 05:29:14;;;;;;;12.20;9.60;;;12.10;99.90;;;;;;4954694;29;20183;-85
2022/10/21 05:31:40;;;;;;;10.40;9.20;;;12.00;99.90;;;;;;4953596;29;20175;-87
2022/10/21 05:34:05;;;;;;;10.77;8.83;;;12.10;99.90;;;;;;4937526;29;20175;-87
2022/10/21 05:36:31;;;;;;;10.67;9.00;;;12.10;99.90;;;;;;4954651;29;20252;-87
2022/10/21 05:38:57;;;;;;;18.90;9.67;;;12.10;99.90;;;;;;4954722;29;20300;-86
2022/10/21 05:41:23;;;;;;;10.83;8.93;;;12.10;99.90;;;;;;4937860;29;20276;-86
2022/10/21 05:43:48;;;;;;;12.40;10.07;;;12.10;99.90;;;;;;4954746;29;20179;-86
2022/10/21 05:46:14;;;;;;;10.63;9.03;;;12.10;99.90;;;;;;4954757;29;20176;-86
2022/10/21 05:48:40;;;;;;;12.87;9.10;;;12.10;99.90;;;;;;4936919;29;20642;-85
2022/10/21 05:51:07;;;;;;;13.27;9.80;;;12.20;99.90;;;;;;4937323;29;20267;-87
2022/10/21 05:53:33;;;;;;;12.03;10.03;;;12.20;99.90;;;;;;4952231;29;20238;-86
2022/10/21 05:56:01;;;;;;;11.73;9.83;;;12.20;99.90;;;;;;4954370;29;20204;-86
2022/10/21 05:58:28;;;;;;;13.60;10.07;;;12.30;99.90;;;;;;4937395;29;20223;-85
2022/10/21 06:00:55;;;;;;;11.53;10.33;;;12.30;99.90;;;;;;4937651;29;20176;-87
2022/10/21 06:03:23;;;;;;;12.20;9.27;;;12.40;99.90;;;;;;4957596;28;20167;-86
2022/10/21 06:05:49;;;;;;;12.87;9.90;;;12.40;99.90;;;;;;4959530;29;20237;-86
2022/10/21 06:08:16;;;;;;;10.80;9.70;;;12.40;99.90;;;;;;4963899;29;20181;-87
2022/10/21 06:10:43;;;;;;;10.53;9.43;;;12.50;99.90;;;;;;4969861;28;20258;-86
2022/10/21 06:13:09;;;;;;;11.40;10.20;;;12.50;99.90;;;;;;4940793;29;20267;-86
2022/10/21 06:15:36;;;;;;;11.07;9.93;;;12.50;99.90;;;;;;4939152;29;20225;-86
2022/10/21 06:18:01;;;;;;;10.47;9.37;;;12.50;99.90;;;;;;4954345;29;20283;-88
2022/10/21 06:20:27;;;;;;;12.47;9.87;;;12.50;99.90;;;;;;4963650;28;20214;-87
2022/10/21 06:22:53;;;;;;;13.87;9.57;;;12.50;99.90;;;;;;4958975;29;20185;-88
2022/10/21 06:25:20;;;;;;;11.87;10.37;;;12.60;99.90;;;;;;4957759;28;20212;-88
2022/10/21 06:27:48;;;;;;;11.97;10.47;;;12.50;99.90;;;;;;4959423;29;20570;-88
2022/10/21 06:30:14;;;;;;;14.50;10.70;;;12.50;99.90;;;;;;4941950;29;20187;-87
2022/10/21 06:32:40;;;;;;;10.63;9.50;;;12.40;99.90;;;;;;4971251;29;20248;-89
2022/10/21 06:35:06;;;;;;;12.43;10.13;;;12.40;99.90;;;;;;4961241;29;20188;-88
2022/10/21 06:37:32;;;;;;;11.53;10.07;;;12.40;99.90;;;;;;4968396;29;20567;-89
2022/10/21 06:39:57;;;;;;;12.13;9.87;;;12.30;99.90;;;;;;4946382;29;20183;-89
2022/10/21 06:42:23;;;;;;;12.60;10.80;;;12.30;99.90;;;;;;4962831;29;20179;-90
2022/10/21 06:44:49;;;;;;;11.63;10.20;;;12.30;99.90;;;;;;4959973;29;20797;-88
2022/10/21 06:47:16;;;;;;;11.47;10.27;;;12.40;99.90;;;;;;4946459;29;20202;-88
2022/10/21 06:49:41;;;;;;;12.03;10.30;;;12.40;99.90;;;;;;4973680;29;20243;-88
2022/10/21 06:52:07;;;;;;;11.60;10.27;;;12.40;99.90;;;;;;4976687;29;20580;-88
2022/10/21 06:54:33;;;;;;;12.27;10.53;;;12.40;99.90;;;;;;4957071;29;20192;-88
2022/10/21 06:56:59;;;;;;;12.83;10.90;;;12.50;99.90;;;;;;4959175;29;20246;-89
2022/10/21 06:59:25;;;;;;;13.93;10.77;;;12.50;99.90;;;;;;4958596;29;20194;-90
2022/10/21 07:01:51;;;;;;;12.50;10.27;;;12.50;99.90;;;;;;4965852;29;20173;-89
2022/10/21 07:04:17;;;;;;;13.70;10.90;;;12.60;99.90;;;;;;4949944;29;20190;-89
2022/10/21 07:06:44;;;;;;;13.27;11.23;;;12.70;99.90;;;;;;4964750;29;20594;-88
2022/10/21 07:09:10;;;;;;;12.20;10.70;;;12.80;99.90;;;;;;4943158;29;20214;-89
2022/10/21 07:11:36;;;;;;;14.30;10.20;;;12.90;99.90;;;;;;4958568;29;20231;-89
2022/10/21 07:14:02;;;;;;;13.90;10.57;;;13.00;99.90;;;;;;4958987;29;20181;-89
2022/10/21 07:16:33;;;;;;;12.93;10.60;;;13.00;99.90;;;;;;4957798;29;20180;-89
2022/10/21 07:18:59;;;;;;;13.07;10.53;;;13.00;99.90;;;;;;4957777;29;20202;-89
2022/10/21 07:21:27;;;;;;;12.50;9.97;;;13.10;99.90;;;;;;4959987;29;20167;-89
2022/10/21 07:23:55;;;;;;;13.20;9.80;;;13.10;99.90;;;;;;4960317;29;20240;-89
2022/10/21 07:26:21;;;;;;;14.37;10.83;;;13.10;99.90;;;;;;4957163;29;20586;-89
2022/10/21 07:28:48;;;;;;;11.50;10.23;;;13.10;99.90;;;;;;4939745;29;20186;-89
2022/10/21 07:31:18;;;;;;;12.67;10.90;;;13.00;99.90;;;;;;4940360;29;20302;-88
2022/10/21 07:33:45;;;;;;;13.17;10.63;;;13.00;99.90;;;;;;4958365;29;20217;-89
2022/10/21 07:36:14;;;;;;;11.93;10.10;;;13.00;99.90;;;;;;4958734;28;20728;-89
2022/10/21 07:38:45;;;;;;;11.93;10.23;;;13.00;99.90;;;;;;4957946;29;20242;-88
2022/10/21 07:41:32;;;;;;;11.90;10.40;;;13.00;99.90;;;;;;4942279;29;20167;-89
2022/10/21 07:43:59;;;;;;;12.40;11.03;;;13.00;99.90;;;;;;4958336;29;20165;-89
2022/10/21 07:46:25;;;;;;;14.63;10.57;;;13.00;99.90;;;;;;4960768;29;20647;-89
2022/10/21 07:48:52;;;;;;;13.83;10.43;;;12.90;99.90;;;;;;4964903;29;20169;-90
2022/10/21 07:51:20;;;;;;;12.03;10.73;;;12.80;99.90;;;;;;4958634;29;20185;-89
2022/10/21 07:53:52;;;;;;;15.67;10.90;;;12.80;99.90;;;;;;4941415;29;20195;-89
2022/10/21 07:56:23;;;;;;;11.60;10.40;;;12.80;99.90;;;;;;4958218;29;20179;-89
2022/10/21 07:58:50;;;;;;;12.40;11.03;;;12.90;99.90;;;;;;4940443;29;20670;-89
2022/10/21 08:01:17;;;;;;;12.97;10.70;;;13.00;99.90;;;;;;4957702;29;20236;-89
2022/10/21 08:03:43;;;;;;;12.67;10.80;;;13.00;99.90;;;;;;4957535;29;20504;-88
2022/10/21 08:06:11;;;;;;;13.07;10.93;;;13.00;99.90;;;;;;4965706;29;20177;-90
2022/10/21 08:08:37;;;;;;;12.13;10.80;;;13.20;99.90;;;;;;4964216;29;20911;-88
2022/10/21 08:11:04;;;;;;;12.30;9.93;;;13.30;99.90;;;;;;4958022;29;20701;-88
2022/10/21 08:13:30;;;;;;;13.67;10.53;;;13.40;99.90;;;;;;4940289;29;20183;-87
2022/10/21 08:15:57;;;;;;;14.60;11.03;;;13.40;99.90;;;;;;4957212;29;20179;-88
2022/10/21 08:18:25;;;;;;;15.83;10.40;;;13.40;99.90;;;;;;4957733;29;20207;-88
2022/10/21 08:20:51;;;;;;;13.63;10.40;;;13.40;99.90;;;;;;4966513;29;20174;-88
2022/10/21 08:23:19;;;;;;;12.37;10.60;;;13.40;99.90;;;;;;4979048;29;20179;-89
2022/10/21 08:25:50;;;;;;;13.97;10.63;;;13.40;99.90;;;;;;4979438;28;20164;-88
2022/10/21 08:28:17;;;;;;;12.67;10.20;;;13.40;99.90;;;;;;4946148;29;20172;-87
2022/10/21 08:30:44;;;;;;;12.30;10.47;;;13.40;99.90;;;;;;4940839;29;20179;-88
2022/10/21 08:33:10;;;;;;;15.60;10.63;;;13.50;99.90;;;;;;4958579;29;20206;-88
2022/10/21 08:35:37;;;;;;;15.00;11.27;;;13.50;99.90;;;;;;4941237;29;20180;-88
2022/10/21 08:38:03;;;;;;;11.73;10.43;;;13.60;99.90;;;;;;4961007;29;20208;-88
2022/10/21 08:40:37;;;;;;;11.60;10.33;;;13.70;99.90;;;;;;4965435;29;20177;-89
2022/10/21 08:43:18;;;;;;;13.40;10.70;;;13.90;99.90;;;;;;4964325;29;20230;-88
2022/10/21 08:46:01;;;;;;;13.53;10.67;;;13.90;99.90;;;;;;4941328;29;20186;-89
2022/10/21 08:48:37;;;;;;;15.77;11.47;;;13.90;99.90;;;;;;4956390;28;20605;-88
2022/10/21 08:51:05;;;;;;;12.07;10.87;;;14.00;99.90;;;;;;4955976;29;20191;-88
2022/10/21 08:53:47;;;;;;;15.57;11.17;;;14.00;99.90;;;;;;4956630;29;20212;-88
2022/10/21 08:56:15;;;;;;;12.70;10.67;;;14.10;99.90;;;;;;4956227;29;20174;-88
2022/10/21 08:58:42;;;;;;;15.13;10.83;;;14.20;99.90;;;;;;4938957;29;20278;-88
2022/10/21 09:01:48;;;;;;;13.03;11.03;;;14.20;99.90;;;;;;4939243;29;20281;-87
2022/10/21 09:04:42;;;;;;;14.30;11.20;;;14.30;99.90;;;;;;4956183;29;20533;-89
2022/10/21 09:07:19;;;;;;;14.47;10.67;;;14.30;99.90;;;;;;4938623;29;20305;-88
2022/10/21 09:09:58;;;;;;;13.63;11.03;;;14.40;99.90;;;;;;4938998;29;20178;-88
2022/10/21 09:12:36;;;;;;;12.97;10.37;;;14.50;99.90;;;;;;4955218;29;20257;-88
2022/10/21 09:15:11;;;;;;;11.03;9.93;;;14.60;99.90;;;;;;4955424;29;20254;-88
2022/10/21 09:17:39;;;;;;;12.27;10.87;;;14.60;99.90;;;;;;4955716;29;20285;-89
2022/10/21 09:20:48;;;;;;;14.60;10.43;;;14.70;99.90;;;;;;4955180;29;20168;-89
2022/10/21 09:23:33;;;;;;;12.00;10.07;;;14.80;99.90;;;;;;4934235;29;20214;-88
2022/10/21 09:26:14;;;;;;;15.47;11.00;;;14.90;99.90;;;;;;4955515;29;20857;-87
2022/10/21 09:28:40;;;;;;;18.60;11.47;;;14.90;99.90;;;;;;4956209;29;20174;-88
2022/10/21 09:31:14;;;;;;;14.03;10.60;;;15.00;99.90;;;;;;4939465;29;20610;-89
2022/10/21 09:33:45;;;;;;;13.40;10.23;;;15.00;99.90;;;;;;4943959;29;20536;-88
2022/10/21 09:36:17;;;;;;;13.97;10.43;;;14.90;99.90;;;;;;4939494;29;20266;-89
2022/10/21 09:39:12;;;;;;;13.50;12.10;;;14.90;99.90;;;;;;4938194;29;20214;-89
2022/10/21 09:41:45;;;;;;;11.50;10.30;;;15.00;99.90;;;;;;4955273;29;20167;-88
2022/10/21 09:44:19;;;;;;;13.03;10.77;;;15.00;99.90;;;;;;4955066;29;20167;-88
2022/10/21 09:46:47;;;;;;;12.20;11.00;;;15.00;99.90;;;;;;4955996;29;20529;-89
2022/10/21 09:49:27;;;;;;;13.43;10.47;;;15.20;99.90;;;;;;4938781;29;20175;-88
2022/10/21 09:51:55;;;;;;;13.73;11.13;;;15.10;99.90;;;;;;4948419;29;20235;-88
2022/10/21 09:54:24;;;;;;;11.53;10.30;;;15.20;99.90;;;;;;4959944;29;20167;-89
2022/10/21 09:56:57;;;;;;;28.43;19.30;;;15.20;99.90;;;;;;4961834;29;20180;-88
2022/10/21 09:59:24;;;;;;;19.53;14.70;;;15.30;99.90;;;;;;4979058;28;20159;-89
2022/10/21 10:01:50;;;;;;;33.47;21.73;;;15.40;99.90;;;;;;4977488;28;20204;-88
2022/10/21 10:04:33;;;;;;;22.97;15.80;;;15.50;99.90;;;;;;4942812;29;20630;-88
2022/10/21 10:07:25;;;;;;;15.50;12.37;;;15.50;99.90;;;;;;4962143;29;20239;-88
2022/10/21 10:09:51;;;;;;;15.03;11.83;;;15.60;99.90;;;;;;4973208;28;20181;-88
2022/10/21 10:12:25;;;;;;;14.20;12.63;;;15.60;99.90;;;;;;4982651;28;20242;-89
2022/10/21 10:14:51;;;;;;;12.57;10.77;;;15.70;99.90;;;;;;4968768;29;20182;-88
2022/10/21 10:17:30;;;;;;;11.90;10.70;;;15.80;99.90;;;;;;4959222;29;20225;-88
2022/10/21 10:20:13;;;;;;;11.97;10.53;;;15.80;99.90;;;;;;4959050;29;20177;-89
2022/10/21 10:22:41;;;;;;;13.47;10.63;;;15.80;99.90;;;;;;4941544;29;20170;-85
2022/10/21 10:25:20;;;;;;;12.17;10.47;;;15.90;99.90;;;;;;4958868;29;20183;-88
2022/10/21 10:28:07;;;;;;;11.60;10.43;;;15.80;99.90;;;;;;4942711;29;20190;-88
2022/10/21 10:30:37;;;;;;;11.43;10.27;;;15.90;99.90;;;;;;4940991;29;20174;-89
2022/10/21 10:33:20;;;;;;;11.60;10.13;;;15.90;99.90;;;;;;4959757;29;20200;-87
2022/10/21 10:35:53;;;;;;;12.03;10.77;;;15.90;99.90;;;;;;4965494;29;20179;-86
2022/10/21 10:38:40;;;;;;;12.33;10.20;;;16.00;99.90;;;;;;4943088;29;20213;-88
2022/10/21 10:41:17;;;;;;;11.03;9.73;;;16.00;99.90;;;;;;4940531;29;20291;-89
2022/10/21 10:43:47;;;;;;;11.70;10.50;;;16.00;99.90;;;;;;4941053;29;20202;-88
2022/10/21 10:46:22;;;;;;;11.53;9.70;;;16.10;99.90;;;;;;4941707;29;20643;-89
2022/10/21 10:48:50;;;;;;;11.50;10.00;;;16.10;99.90;;;;;;4957848;29;20178;-88
2022/10/21 10:51:31;;;;;;;11.50;10.40;;;16.20;99.90;;;;;;4940368;29;20294;-89
2022/10/21 10:54:06;;;;;;;10.93;9.70;;;16.20;99.90;;;;;;4957717;29;20188;-88
2022/10/21 10:56:56;;;;;;;13.73;10.67;;;16.10;99.90;;;;;;4958197;29;20538;-89
2022/10/21 10:59:22;;;;;;;11.33;10.23;;;16.10;99.90;;;;;;4940578;29;20541;-89
2022/10/21 11:02:09;;;;;;;11.40;10.10;;;16.10;99.90;;;;;;4942098;29;20177;-89
2022/10/21 11:04:43;;;;;;;11.70;10.00;;;16.10;99.90;;;;;;4941815;29;20177;-90
2022/10/21 11:07:32;;;;;;;11.77;10.23;;;16.20;99.90;;;;;;4961068;29;20166;-89
2022/10/21 11:10:05;;;;;;;11.17;9.90;;;16.10;99.90;;;;;;4971747;28;20163;-89
2022/10/21 11:12:31;;;;;;;12.53;9.87;;;16.20;99.90;;;;;;4947205;29;20283;-89
2022/10/21 11:14:58;;;;;;;12.80;9.37;;;16.20;99.90;;;;;;4958920;29;20182;-89
2022/10/21 11:17:40;;;;;;;11.37;9.97;;;16.20;99.90;;;;;;4944858;29;20254;-89
2022/10/21 11:20:14;;;;;;;12.17;9.63;;;16.20;99.90;;;;;;4945911;29;20171;-89
2022/10/21 11:22:57;;;;;;;11.07;9.70;;;16.20;99.90;;;;;;4960330;29;20170;-88
2022/10/21 11:25:39;;;;;;;12.07;9.63;;;16.30;99.90;;;;;;4940321;29;20182;-88
2022/10/21 11:28:08;;;;;;;11.43;9.90;;;16.30;99.90;;;;;;4958152;29;20171;-88
2022/10/21 11:31:28;;;;;;;11.37;9.40;;;16.40;99.90;;;;;;4948124;29;20174;-88
2022/10/21 11:34:13;;;;;;;10.60;9.50;;;16.30;99.90;;;;;;4899331;29;20166;-87
2022/10/21 11:36:44;;;;;;;10.07;9.07;;;16.30;99.90;;;;;;4887682;29;20170;-88
2022/10/21 11:39:38;;;;;;;10.43;9.03;;;16.40;99.90;;;;;;4893694;29;20216;-88
2022/10/21 11:42:21;;;;;;;11.27;8.80;;;16.50;99.90;;;;;;4896736;29;20182;-88
2022/10/21 11:45:11;;;;;;;10.80;9.63;;;16.50;99.90;;;;;;4885278;29;20181;-87
2022/10/21 11:47:55;;;;;;;13.17;9.73;;;16.60;99.90;;;;;;4880031;29;20233;-88
2022/10/21 11:50:59;;;;;;;10.30;9.20;;;16.70;99.90;;;;;;4881557;29;20737;-88
2022/10/21 11:53:46;;;;;;;10.23;8.67;;;16.70;99.90;;;;;;4865864;29;20192;-87
2022/10/21 11:56:18;;;;;;;9.57;8.60;;;16.70;99.90;;;;;;4879025;29;20689;-86
2022/10/21 11:58:55;;;;;;;9.90;8.70;;;16.60;99.90;;;;;;4864584;29;20241;-87
2022/10/21 12:01:49;;;;;;;10.37;9.37;;;16.60;99.90;;;;;;4882950;29;20200;-88
2022/10/21 12:04:36;;;;;;;10.43;9.20;;;16.60;99.90;;;;;;4883194;29;20178;-88
2022/10/21 12:07:47;;;;;;;10.63;9.53;;;16.60;99.90;;;;;;4890990;29;20269;-88
2022/10/21 12:10:36;;;;;;;11.73;9.17;;;16.50;99.90;;;;;;4956576;29;20237;-87
2022/10/21 12:13:17;;;;;;;9.50;8.57;;;16.60;99.90;;;;;;4956272;29;20190;-89
2022/10/21 12:15:49;;;;;;;11.27;8.90;;;16.50;99.90;;;;;;4956827;29;20163;-89
2022/10/21 12:18:18;;;;;;;9.60;8.60;;;16.40;99.90;;;;;;4955978;29;20202;-88
2022/10/21 12:20:47;;;;;;;10.40;9.27;;;16.40;99.90;;;;;;4955972;29;20183;-88
2022/10/21 12:23:17;;;;;;;11.73;9.40;;;16.30;99.90;;;;;;4955146;28;20175;-88
2022/10/21 12:25:52;;;;;;;13.67;8.93;;;16.30;99.90;;;;;;4956282;29;20185;-89
2022/10/21 12:28:38;;;;;;;9.87;7.97;;;16.20;99.90;;;;;;4960728;29;20174;-89
2022/10/21 12:31:33;;;;;;;10.80;9.20;;;16.20;99.90;;;;;;4958169;29;20191;-89
2022/10/21 12:34:01;;;;;;;10.40;9.30;;;16.00;99.90;;;;;;4956170;29;20173;-88
2022/10/21 12:36:39;;;;;;;11.67;8.47;;;16.10;99.90;;;;;;4938461;29;20201;-88
2022/10/21 12:39:11;;;;;;;10.60;9.50;;;16.20;99.90;;;;;;4938445;29;20218;-88
2022/10/21 12:41:39;;;;;;;12.23;10.57;;;16.10;99.90;;;;;;4938249;29;20555;-88
2022/10/21 12:44:24;;;;;;;54.80;30.13;;;16.20;99.90;;;;;;4955573;29;20175;-88
2022/10/21 12:46:55;;;;;;;20.87;14.03;;;16.20;99.90;;;;;;4938367;29;20183;-88
2022/10/21 12:49:22;;;;;;;12.50;10.80;;;16.10;99.90;;;;;;4938515;29;20174;-88
2022/10/21 12:51:56;;;;;;;12.57;9.77;;;16.00;99.90;;;;;;4955489;29;20175;-88
2022/10/21 12:54:29;;;;;;;11.17;8.87;;;16.00;99.90;;;;;;4955740;29;20209;-88
2022/10/21 12:57:01;;;;;;;9.77;8.77;;;16.00;99.90;;;;;;4955654;29;20182;-88